Pagina principale
METAR-TAF:

METAR-TAF

Aeroporti :

Aeroporto di Firenze-Peretola

Firenze, Italia

latitudine: 43-48N, longitudine: 011-12E, altezza: 40 m

Osservazione

Il bollettino è stato emesso 17 minuti fa, alle 16:50 UTC
Vento 1 kt da direzioni variabili
Temperature 8°C
Umidità 93%
Pressione 1018 hPa
Visibilità 10 km o più
Poco nuvoloso ad un'altezza di 6000 ft

METAR: LIRQ 201650Z VRB01KT 9999 FEW060 08/07 Q1018

Ora: 18:07 (17:07 UTC)

Previsione

Il bollettino è stato emesso 6 ore e 7 minuti fa, alle 11:00 UTC
Previsione valida dal 20 alle 12 UTC al 21 alle 12 UTC
Vento 5 kt da direzioni variabili
Visibilità: 6000 m
Nubi sparse ad un'altezza di 3000 ft
Temporaneamente
dal 20 alle 12 UTC al 20 alle 14 UTC
Visibilità: 4000 m
rovesci di pioggia
Temporaneamente
dal 20 alle 18 UTC al 21 alle 07 UTC
Visibilità: 3000 m
foschia

TAF: LIRQ 201100Z 2012/2112 VRB05KT 6000 SCT030 TEMPO 2012/2014 4000 SHRA TEMPO 2018/2107 3000 BR

Osservazioni e previsioni meteorologiche di più di 4000 aeroporti (messaggi METAR e TAF).

Le stazioni disponibili sono rappresentate dai dischi gialli e rossi sulla carta.

Puntare il mouse per vedere il nome della stazione.

Clicca sopra per visualizzare le osservazioni e previsioni meteorologiche.

Per cambiare la mappa : fare clic sui pulsanti verdi con una croce nera per ingrandire, il pulsante verde con un trattino per diminuire, o sulla freccia verde per le mappe adiacenti.


METAR-TAF: